Time;durP1;ratioP1;P1;durP2;ratioP2;P2;SDS_P1;SDS_P2;PMS_P1;PMS_P2;Temp;Humidity;BMP_temperature;BMP_pressure;BME280_temperature;BME280_humidity;BME280_pressure;Samples;Min_cycle;Max_cycle;Signal;HPM_P1;HPM_P2
2023/06/19 00:03:41;;;;;;;16.20;12.80;;;;;;;12.52;89.28;99400.70;436796;1251;139889;-64
2023/06/19 00:13:44;;;;;;;13.70;12.30;;;;;;;12.36;89.62;99404.34;436845;1253;139706;-65
2023/06/19 00:23:47;;;;;;;19.00;12.70;;;;;;;12.24;90.13;99405.77;436484;1250;139926;-65
2023/06/19 00:33:50;;;;;;;17.60;15.70;;;;;;;12.12;90.21;99405.03;436207;1254;140915;-65
2023/06/19 00:43:54;;;;;;;12.80;11.40;;;;;;;12.15;91.90;99403.09;436284;1251;140585;-64
2023/06/19 00:53:57;;;;;;;14.40;13.10;;;;;;;12.03;91.15;99404.28;436627;1251;139422;-64
2023/06/19 01:04:00;;;;;;;15.10;13.50;;;;;;;11.91;90.95;99407.47;436600;1251;140147;-64
2023/06/19 01:14:08;;;;;;;15.60;12.20;;;;;;;11.77;91.20;99402.24;436440;1250;140149;-64
2023/06/19 01:24:11;;;;;;;13.70;12.30;;;;;;;11.65;91.05;99405.55;437144;1254;140541;-64
2023/06/19 01:34:17;;;;;;;14.40;12.90;;;;;;;11.57;91.19;99393.55;436446;1251;139821;-64
2023/06/19 01:44:21;;;;;;;13.50;12.20;;;;;;;11.55;92.11;99393.14;437098;1253;140966;-64
2023/06/19 01:54:24;;;;;;;14.40;12.90;;;;;;;11.47;91.54;99394.57;436389;1251;139701;-63
2023/06/19 02:04:27;;;;;;;15.00;12.80;;;;;;;11.40;91.40;99388.55;436512;1251;140107;-65
2023/06/19 02:14:30;;;;;;;18.90;15.70;;;;;;;11.33;91.57;99389.02;436901;1251;139336;-65
2023/06/19 02:24:33;;;;;;;16.40;14.00;;;;;;;11.33;92.24;99386.07;436627;1251;139260;-64
2023/06/19 02:34:37;;;;;;;14.50;12.40;;;;;;;11.29;91.76;99388.83;436457;1252;140331;-63
2023/06/19 02:44:40;;;;;;;16.70;11.90;;;;;;;11.36;91.74;99391.84;436301;1254;139851;-64
2023/06/19 02:54:43;;;;;;;12.10;11.10;;;;;;;11.50;91.69;99396.99;436775;1251;140138;-64
2023/06/19 03:04:46;;;;;;;12.10;10.90;;;;;;;12.40;92.49;99399.23;436472;1253;139498;-64
2023/06/19 03:14:49;;;;;;;12.20;10.80;;;;;;;14.57;90.14;99398.77;436441;1251;140211;-64
2023/06/19 03:24:52;;;;;;;12.90;11.80;;;;;;;16.09;85.35;99402.96;436880;1254;141003;-65
2023/06/19 03:34:55;;;;;;;12.20;11.10;;;;;;;18.56;81.90;99402.45;436522;1250;141467;-64
2023/06/19 03:44:58;;;;;;;12.60;11.40;;;;;;;18.19;77.46;99404.96;436525;1251;140842;-64
2023/06/19 03:55:01;;;;;;;11.90;10.80;;;;;;;18.04;78.64;99403.26;436544;1250;140198;-64
2023/06/19 04:05:05;;;;;;;13.50;11.60;;;;;;;23.08;75.06;99398.24;436847;1251;140893;-63
2023/06/19 04:15:10;;;;;;;13.00;11.20;;;;;;;27.51;66.57;99397.11;436942;1251;139190;-63
2023/06/19 04:25:13;;;;;;;11.40;10.40;;;;;;;31.00;58.97;99404.52;437266;1251;140124;-63
2023/06/19 04:35:18;;;;;;;12.20;11.20;;;;;;;34.12;51.05;99406.53;436459;1250;138792;-63
2023/06/19 04:45:21;;;;;;;11.90;10.30;;;;;;;36.54;43.45;99411.33;436485;1251;140068;-64
2023/06/19 04:55:25;;;;;;;11.00;9.90;;;;;;;38.31;39.15;99421.08;436246;1254;138820;-65
2023/06/19 05:05:28;;;;;;;10.40;9.60;;;;;;;40.13;35.78;99424.91;436160;1251;138889;-65
2023/06/19 05:15:31;;;;;;;8.80;8.00;;;;;;;42.56;32.25;99427.86;435647;1250;138475;-64
2023/06/19 05:25:34;;;;;;;9.30;7.20;;;;;;;43.96;29.05;99422.10;435981;1252;138560;-64
2023/06/19 05:35:37;;;;;;;7.60;7.00;;;;;;;45.42;26.72;99426.14;436107;1254;139282;-65
2023/06/19 05:45:40;;;;;;;7.50;6.90;;;;;;;47.04;24.70;99431.69;435823;1250;139928;-65
2023/06/19 05:55:43;;;;;;;7.10;6.40;;;;;;;48.16;22.98;99437.97;436074;1254;138730;-65
2023/06/19 06:05:48;;;;;;;7.60;7.10;;;;;;;49.01;22.02;99445.95;435694;1250;138459;-65
2023/06/19 06:15:52;;;;;;;6.90;6.50;;;;;;;50.42;20.65;99449.86;436370;1250;138470;-64
2023/06/19 06:26:02;;;;;;;5.70;5.30;;;;;;;51.52;19.27;99449.69;436918;1253;138434;-65
2023/06/19 06:36:05;;;;;;;7.00;6.30;;;;;;;51.90;18.37;99450.48;436475;1251;139899;-65
2023/06/19 06:46:11;;;;;;;5.90;5.40;;;;;;;52.42;17.76;99457.93;436171;1254;138726;-65
2023/06/19 06:56:14;;;;;;;6.10;5.70;;;;;;;53.61;17.00;99457.06;436413;1254;138572;-65
2023/06/19 07:06:17;;;;;;;6.80;6.00;;;;;;;54.34;15.69;99461.50;436634;1254;138896;-67
2023/06/19 07:16:21;;;;;;;6.10;5.60;;;;;;;53.90;14.63;99459.26;436768;1251;138947;-66
2023/06/19 07:26:24;;;;;;;6.30;5.70;;;;;;;54.05;14.39;99470.02;436545;1254;169724;-64
2023/06/19 07:36:27;;;;;;;6.10;5.80;;;;;;;54.26;14.29;99476.71;436266;1254;138138;-64
2023/06/19 07:46:30;;;;;;;4.10;3.90;;;;;;;54.46;13.60;99477.29;436498;1251;138943;-64
2023/06/19 07:56:33;;;;;;;5.20;4.80;;;;;;;50.44;14.47;99479.16;436326;1254;138747;-64
2023/06/19 08:06:36;;;;;;;5.30;4.40;;;;;;;42.98;17.95;99474.66;436496;1251;138694;-65
2023/06/19 08:16:39;;;;;;;5.70;4.90;;;;;;;38.92;20.61;99475.73;436537;1254;138271;-65
2023/06/19 08:26:42;;;;;;;5.60;4.40;;;;;;;35.80;22.88;99473.37;437029;1254;139413;-65
2023/06/19 08:36:45;;;;;;;4.40;4.10;;;;;;;34.52;24.65;99476.00;436650;1254;139414;-67
2023/06/19 08:46:48;;;;;;;5.30;4.80;;;;;;;33.69;25.31;99470.16;436453;1250;139849;-64
2023/06/19 08:56:53;;;;;;;7.30;4.60;;;;;;;31.65;26.99;99473.68;436512;1254;139016;-64
2023/06/19 09:06:58;;;;;;;4.80;4.40;;;;;;;31.62;27.48;99464.38;436444;1254;139305;-65
2023/06/19 09:17:02;;;;;;;11.50;4.70;;;;;;;31.86;27.88;99454.98;436672;1251;138760;-65
2023/06/19 09:27:13;;;;;;;8.20;4.80;;;;;;;31.20;28.17;99450.50;436160;1256;140269;-65
2023/06/19 09:37:18;;;;;;;9.20;3.80;;;;;;;30.11;28.67;99453.58;437557;1253;139190;-65
2023/06/19 09:47:24;;;;;;;4.60;3.80;;;;;;;29.61;29.50;99448.46;436389;1256;138975;-65
2023/06/19 09:57:28;;;;;;;16.70;5.60;;;;;;;29.81;29.48;99446.70;436457;1253;139565;-65
2023/06/19 10:07:35;;;;;;;3.50;3.20;;;;;;;29.06;30.61;99450.15;436498;1256;141120;-66
2023/06/19 10:17:43;;;;;;;9.30;4.60;;;;;;;28.72;31.34;99449.12;436445;1251;139069;-63
2023/06/19 10:27:46;;;;;;;3.90;3.60;;;;;;;29.20;31.61;99447.45;436245;1255;138796;-65
2023/06/19 10:37:49;;;;;;;3.60;3.30;;;;;;;29.51;31.05;99441.35;435959;1255;138785;-63
2023/06/19 10:47:52;;;;;;;4.30;3.20;;;;;;;29.29;30.95;99439.02;436630;1254;139059;-64
2023/06/19 10:57:56;;;;;;;5.00;3.90;;;;;;;28.95;30.79;99437.29;436163;1256;140299;-64
2023/06/19 11:08:00;;;;;;;4.20;3.80;;;;;;;28.45;31.26;99433.75;436176;1252;140660;-65
2023/06/19 11:18:03;;;;;;;6.50;3.60;;;;;;;27.97;31.86;99434.65;436546;1254;141748;-60
2023/06/19 11:28:13;;;;;;;3.80;3.50;;;;;;;27.72;32.69;99431.77;437084;1250;138155;-60
2023/06/19 11:38:19;;;;;;;3.60;3.30;;;;;;;27.42;32.49;99427.55;436166;1256;139174;-61
2023/06/19 11:48:25;;;;;;;5.20;3.10;;;;;;;27.44;32.68;99418.89;436383;1251;140046;-60
2023/06/19 11:58:28;;;;;;;4.20;3.70;;;;;;;27.46;33.05;99408.84;436821;1251;139095;-60
2023/06/19 12:08:31;;;;;;;3.60;3.20;;;;;;;27.45;32.80;99402.21;436158;1251;140215;-61
2023/06/19 12:18:34;;;;;;;3.90;3.50;;;;;;;27.49;32.79;99402.39;436469;1251;138256;-61
2023/06/19 12:28:37;;;;;;;5.40;4.00;;;;;;;27.58;32.97;99402.75;436217;1256;138154;-61
2023/06/19 12:38:41;;;;;;;3.60;3.30;;;;;;;27.76;33.11;99396.30;436287;1254;139012;-60
2023/06/19 12:48:44;;;;;;;4.30;3.20;;;;;;;27.94;32.50;99387.69;436595;1252;140726;-60
2023/06/19 12:58:47;;;;;;;3.50;3.20;;;;;;;28.02;32.90;99388.46;436263;1256;138632;-61
2023/06/19 13:08:50;;;;;;;3.60;3.30;;;;;;;27.64;33.13;99384.56;436153;1254;139104;-61
2023/06/19 13:18:53;;;;;;;4.50;3.50;;;;;;;27.43;33.45;99374.00;436550;1255;138234;-60
2023/06/19 13:28:58;;;;;;;7.50;3.20;;;;;;;27.28;33.17;99364.05;436241;1255;139330;-61
2023/06/19 13:39:02;;;;;;;3.40;3.20;;;;;;;27.30;32.78;99358.35;437186;1256;138793;-62
2023/06/19 13:49:05;;;;;;;3.20;2.90;;;;;;;27.35;32.74;99360.77;435940;1256;138863;-60
2023/06/19 13:59:08;;;;;;;3.50;3.20;;;;;;;27.37;32.54;99355.20;436607;1251;138195;-61
2023/06/19 14:09:12;;;;;;;7.50;3.20;;;;;;;27.71;32.62;99357.36;436731;1256;139495;-60
2023/06/19 14:19:15;;;;;;;3.60;3.30;;;;;;;27.94;32.68;99359.71;436416;1256;140124;-60
2023/06/19 14:29:18;;;;;;;5.30;3.10;;;;;;;28.00;32.54;99359.41;436215;1257;139795;-58
2023/06/19 14:39:21;;;;;;;3.60;3.30;;;;;;;27.93;32.66;99354.98;436656;1254;140508;-60
2023/06/19 14:49:24;;;;;;;3.20;2.90;;;;;;;28.00;32.49;99349.59;436037;1254;138399;-61
2023/06/19 14:59:27;;;;;;;7.20;6.60;;;;;;;27.68;32.48;99349.05;436206;1256;138402;-61
2023/06/19 15:09:30;;;;;;;3.60;3.40;;;;;;;27.49;32.51;99360.64;436038;1254;138424;-61
2023/06/19 15:19:33;;;;;;;3.50;3.20;;;;;;;27.46;32.76;99355.83;436170;1254;139874;-60
2023/06/19 15:29:38;;;;;;;3.80;3.50;;;;;;;27.41;32.94;99348.69;436557;1254;140670;-62
2023/06/19 15:39:42;;;;;;;3.20;3.00;;;;;;;27.37;33.03;99341.73;436339;1254;139440;-61
2023/06/19 15:49:46;;;;;;;3.80;3.60;;;;;;;27.34;32.95;99336.10;436260;1254;138728;-61
2023/06/19 15:59:51;;;;;;;3.70;3.40;;;;;;;27.22;33.18;99336.16;436945;1254;139974;-61
2023/06/19 16:09:54;;;;;;;4.30;4.00;;;;;;;27.12;33.52;99334.09;436066;1251;138380;-61
2023/06/19 16:19:58;;;;;;;3.90;3.60;;;;;;;27.15;33.97;99333.98;435578;1254;139503;-60
2023/06/19 16:30:02;;;;;;;4.30;3.90;;;;;;;27.22;33.69;99335.59;435435;1251;139933;-59
2023/06/19 16:40:09;;;;;;;4.10;3.70;;;;;;;27.28;33.75;99335.80;436581;1254;138644;-60
2023/06/19 16:50:12;;;;;;;4.00;3.70;;;;;;;27.18;34.06;99339.48;436692;1254;139494;-60
2023/06/19 17:00:18;;;;;;;4.80;4.30;;;;;;;26.92;34.04;99343.52;435888;1251;140045;-61
2023/06/19 17:10:22;;;;;;;7.30;6.60;;;;;;;26.55;34.68;99343.80;436772;1251;139196;-62
2023/06/19 17:20:26;;;;;;;4.30;3.70;;;;;;;26.22;35.15;99343.10;437005;1251;139606;-61
2023/06/19 17:30:30;;;;;;;3.90;3.60;;;;;;;25.88;35.68;99345.88;436886;1251;138770;-60
2023/06/19 17:40:33;;;;;;;4.70;4.30;;;;;;;25.54;36.59;99351.42;436646;1254;138397;-60
2023/06/19 17:50:36;;;;;;;4.80;4.40;;;;;;;25.12;37.45;99349.07;436456;1254;138313;-60
2023/06/19 18:00:40;;;;;;;5.00;4.60;;;;;;;24.75;38.30;99344.73;436199;1251;139227;-60
2023/06/19 18:10:43;;;;;;;4.90;4.50;;;;;;;24.70;38.64;99350.56;436312;1254;138576;-60
2023/06/19 18:20:47;;;;;;;5.30;4.40;;;;;;;24.28;39.40;99358.66;436595;1254;140119;-61
2023/06/19 18:30:50;;;;;;;5.60;5.20;;;;;;;23.87;40.32;99362.17;437847;1254;139497;-60
2023/06/19 18:40:53;;;;;;;6.50;4.80;;;;;;;23.52;40.90;99359.40;436444;1250;138894;-59
2023/06/19 18:50:57;;;;;;;6.40;5.60;;;;;;;23.12;42.56;99367.89;436384;1254;140651;-61
2023/06/19 19:01:01;;;;;;;6.30;5.30;;;;;;;22.73;43.28;99380.96;436584;1251;139055;-61
2023/06/19 19:11:08;;;;;;;7.10;6.00;;;;;;;22.32;45.27;99386.73;436487;1254;139384;-60
2023/06/19 19:21:12;;;;;;;11.20;6.60;;;;;;;22.00;45.57;99392.48;436371;1253;139068;-60
2023/06/19 19:31:15;;;;;;;9.10;7.50;;;;;;;21.85;45.97;99410.29;436566;1253;172556;-60
2023/06/19 19:41:18;;;;;;;10.40;8.00;;;;;;;21.49;48.84;99418.80;437104;1251;138382;-60
2023/06/19 19:51:21;;;;;;;9.90;7.20;;;;;;;20.93;51.29;99430.48;436495;1251;139882;-60
2023/06/19 20:01:24;;;;;;;8.90;6.60;;;;;;;20.47;52.98;99441.84;437027;1254;138262;-60
2023/06/19 20:11:28;;;;;;;10.00;7.20;;;;;;;20.02;54.25;99445.55;436430;1254;139383;-60
2023/06/19 20:21:33;;;;;;;9.60;7.60;;;;;;;19.61;55.14;99450.10;436393;1254;140025;-61
2023/06/19 20:31:37;;;;;;;11.00;7.70;;;;;;;19.28;56.43;99449.20;436232;1251;139771;-60
2023/06/19 20:41:40;;;;;;;8.20;7.20;;;;;;;19.00;57.99;99453.66;436891;1251;138933;-59
2023/06/19 20:51:43;;;;;;;8.80;6.90;;;;;;;18.75;59.21;99461.70;436485;1250;140302;-60
2023/06/19 21:01:46;;;;;;;12.60;8.50;;;;;;;18.50;59.81;99469.77;436517;1250;141505;-60
2023/06/19 21:11:49;;;;;;;10.80;9.40;;;;;;;18.29;60.93;99470.95;436591;1251;140234;-59
2023/06/19 21:21:52;;;;;;;10.60;8.60;;;;;;;18.08;61.92;99477.73;436886;1253;140551;-61
2023/06/19 21:31:56;;;;;;;14.90;12.70;;;;;;;17.87;62.48;99470.86;436483;1253;139699;-60
2023/06/19 21:41:59;;;;;;;12.20;8.00;;;;;;;17.65;63.06;99468.45;436411;1251;139779;-61
2023/06/19 21:52:02;;;;;;;11.50;8.40;;;;;;;17.47;63.97;99472.09;436318;1250;139195;-59
2023/06/19 22:02:08;;;;;;;12.90;11.30;;;;;;;17.31;64.71;99477.20;436403;1251;140721;-60
2023/06/19 22:12:12;;;;;;;18.50;14.20;;;;;;;17.16;65.35;99482.00;436888;1252;140909;-60
2023/06/19 22:22:15;;;;;;;13.30;10.40;;;;;;;17.07;66.48;99479.81;436034;1254;139370;-59
2023/06/19 22:32:18;;;;;;;19.00;10.20;;;;;;;17.09;67.67;99473.65;436180;1250;139955;-60
2023/06/19 22:42:21;;;;;;;13.00;10.10;;;;;;;17.16;67.75;99468.38;435794;1254;139879;-60
2023/06/19 22:52:24;;;;;;;13.70;8.40;;;;;;;17.09;67.90;99459.80;436247;1254;140711;-59
2023/06/19 23:02:27;;;;;;;9.20;8.30;;;;;;;17.14;68.16;99454.09;436072;1251;139072;-60
2023/06/19 23:12:31;;;;;;;13.60;8.80;;;;;;;17.25;68.40;99455.02;436435;1254;138912;-61
2023/06/19 23:22:34;;;;;;;12.60;9.00;;;;;;;17.33;68.62;99440.44;436725;1251;141345;-60
2023/06/19 23:32:37;;;;;;;12.00;8.40;;;;;;;17.42;69.02;99446.16;436579;1250;139285;-60
2023/06/19 23:42:40;;;;;;;11.00;9.40;;;;;;;17.50;69.56;99453.14;436317;1254;140469;-64
2023/06/19 23:52:45;;;;;;;11.50;8.70;;;;;;;17.51;69.67;99454.29;436459;1251;139921;-60
